SBFL/FLN METAR and TAF weather

Enter ICAO airport designator
Station Type Date Time Source
SBFL METAR 2020/07/08 02:00 UTC NOAA

SBFL 080200Z 33004KT 7000 BKN012 BKN017 17/17 Q1010


Station Type Date Time Source
SBFL Decoded METAR 2020/07/08 02:00 UTC NOAA

Florianopolis Aeroporto , Brazil (SBFL) 27-40S 048-33W 5M
Jul 07, 2020 - 10:00 PM EDT / 2020.07.08 0200 UTC
Wind: from the NNW (330 degrees) at 5 MPH (4 KT):0
Visibility: 4 mile(s):0
Sky conditions: mostly cloudy
Temperature: 62 F (17 C)
Dew Point: 62 F (17 C)
Relative Humidity: 100%
Pressure (altimeter): 29.83 in. Hg (1010 hPa)
ob: SBFL 080200Z 33004KT 7000 BKN012 BKN017 17/17 Q1010
cycle: 2

Station Type Date Time Source
SBFL TAF 2020/07/07 18:57 UTC NOAA

TAF SBFL 071500Z 0718/0818 14006KT 4000 RA BKN015 BKN020 TN15/0812Z TX23/0818Z
BECMG 0718/0720 33006KT
BECMG 0807/0809 9999 NSW SCT015 SCT020
RMK PDP

Example: see airport list